Quincy, Illinois
Current Conditions -  °F | °C
As of 10:54 PM on Monday 20 Oct 2014 (Local Time) from KUIN Reporting Station
Clear Clear  
Wind Chill: 55°   Ceiling: Unl
Heat Index: 55°   Visibility: 10mi
Dew Point: 43°   Wind: 5mph
Humidity: 64%   Direction: 270°W
Pressure: 30.02"   Gusts: NA
Location:  39.94°N, 91.39°W
Report Text: KUIN 210354Z AUTO 27004KT 10SM CLR 13/06 A3002 RMK AO2 SLP164 T01280061
Loading
Personal Weather Stations






























Interactive Weather Map New forecast layout! Learn more

10-Day Weather Forecast

Advertisements
Track Severe Weather on mobile